Geokinetics Inc (NASDAQOTH:GEOKQ)

CAPS Rating: 2 out of 5

The Company is a global provider of seismic data acquisition services in land, marsh and swamp and shallow water environments to the oil and natural gas industry.

Results 1 - 99 of 123 : 1 2 Next »
Top
Pick
Member Name Member
Rating
Start
Date
Call Time
Frame
Start
Price
Stock
Gain
Index
Gain
Score Commentary
artcorvelay < 20 5/14/2012 Outperform 1Y $1.32 -99.43% +47.72% -147.15 0 Comment
MoneyPlusSport < 20 1/25/2012 Underperform 5Y $2.00 -99.62% +51.14% +150.77 0 Comment
jdparksASI < 20 9/7/2011 Outperform 5Y $4.60 -99.84% +65.30% -165.13 0 Comment
GreenHillFarAway 28.96 8/22/2011 Outperform 5Y $3.99 -99.81% +75.31% -175.12 0 Comment
Rehydrogenated 32.07 3/29/2011 Outperform 5Y $8.68 -99.91% +51.32% -151.23 0 Comment
2011Fool 99.53 3/25/2011 Outperform NS $8.99 -99.92% +51.17% -151.08 0 Comment
LEGMAKER < 20 2/28/2011 Outperform 5Y $10.59 -99.93% +49.37% -149.30 0 Comment
hcve < 20 1/12/2011 Outperform 3W $9.41 -99.92% +54.90% -154.82 0 Comment
MagicMaggie < 20 12/7/2010 Outperform 5Y $9.35 -99.92% +60.07% -159.99 0 Comment
OberHund < 20 12/6/2010 Outperform 5Y $9.29 -99.92% +61.78% -161.70 0 Comment
tiger6667 < 20 12/1/2010 Outperform 5Y $8.51 -99.91% +65.05% -164.96 0 Comment
bullinnature 95.16 11/9/2009 11/8/2010 Outperform 3Y $12.72 -99.94% +83.78% -183.72 0 Comment
cletedinero < 20 10/18/2010 Outperform 5Y $7.31 -99.90% +67.98% -167.88 0 Comment
brilin 64.43 10/4/2010 Outperform 5Y $6.00 -99.88% +73.46% -173.34 0 Comment
smallandmidcap 94.96 8/10/2010 Underperform 5Y $4.51 -99.83% +77.09% +176.92 0 Comment
roth450 39.21 7/20/2010 Outperform NS $3.99 -99.81% +87.39% -187.20 0 Comment
EffinObama < 20 7/19/2010 Outperform 3Y $4.06 -99.82% +86.07% -185.89 0 Comment
thisyearslosers < 20 6/29/2010 Outperform 5Y $4.12 -99.82% +89.59% -189.41 0 Comment
startunderfive < 20 6/28/2010 Outperform 5Y $4.49 -99.83% +84.24% -184.07 0 Comment
institutionsdown 71.10 6/22/2010 Outperform 5Y $4.88 -99.85% +78.07% -177.92 0 Comment
obsoleteaccount < 20 6/21/2010 Outperform 5Y $4.91 -99.85% +78.53% -178.38 0 Comment
jroren 99.09 6/21/2010 Underperform 3M $5.36 -99.86% +75.38% +175.24 0 Comment
alexdavismith 91.62 6/21/2010 Underperform 5Y $5.36 -99.86% +75.38% +175.24 0 Comment
iddqkfyou < 20 5/11/2010 Outperform 5Y $6.30 -99.88% +72.41% -172.29 1 Comment
asitka 28.53 5/3/2010 Outperform 1Y $8.74 -99.91% +66.18% -166.10 0 Comment
Genomac 30.80 4/26/2010 Outperform 5Y $9.58 -99.92% +62.81% -162.74 0 Comment
HotDdogv2 < 20 4/26/2010 Outperform 5Y $9.58 -99.92% +62.81% -162.74 0 Comment
dejawn69 68.53 4/26/2010 Outperform 5Y $9.58 -99.92% +62.81% -162.74 0 Comment
aliuce 36.92 4/23/2010 Outperform NS $9.53 -99.92% +63.58% -163.50 0 Comment
iamvoltron 23.98 4/22/2010 Outperform 5Y $8.47 -99.91% +65.59% -165.50 0 Comment
explicitonline 37.25 4/20/2010 Underperform 1Y $8.28 -99.91% +64.24% +164.15 0 Comment
markantonythe3rd 31.28 4/20/2010 Outperform 5Y $8.21 -99.91% +64.50% -164.41 0 Comment
dashark44 97.11 4/19/2010 Outperform 5Y $7.81 -99.90% +67.02% -166.93 0 Comment
Powderiver < 20 4/12/2010 Outperform 5Y $7.94 -99.91% +65.70% -165.60 0 Comment
manjux 20.60 4/1/2010 Underperform 3M $7.32 -99.90% +68.37% +168.27 0 Comment
blue2fire < 20 3/22/2010 Outperform 5Y $7.39 -99.90% +72.05% -171.95 0 Comment
StThomasMoreEsq2 98.53 12/29/2009 2/19/2010 Outperform 3M $9.89 -99.92% +76.00% -175.93 0 Comment
HasOrHasNot 40.39 1/28/2010 Outperform 3Y $10.04 -99.93% +80.01% -179.94 0 Comment
CanisMinor 38.74 1/22/2010 Outperform 5Y $10.19 -99.93% +78.41% -178.33 0 Comment
FreeMortal 29.24 1/20/2010 Outperform 5Y $10.34 -99.93% +74.72% -174.64 0 Comment
StGiannaMolla 40.78 1/11/2010 Outperform 5Y $10.53 -99.93% +72.87% -172.80 0 Comment
Clockworker < 20 1/6/2010 Outperform 5Y $9.84 -99.92% +74.65% -174.58 0 Comment
TMFPlatoish 98.55 12/16/2009 Outperform 5Y $9.27 -99.92% +77.18% -177.10 0 Comment
chinneymartin 88.42 11/13/2009 Outperform 5Y $13.20 -99.94% +80.49% -180.43 0 Comment
wkcgx2 20.48 11/9/2009 Outperform 5Y $13.18 -99.94% +82.79% -182.73 0 Comment
outperformONLY < 20 10/19/2009 Outperform 5Y $19.49 -99.96% +81.89% -181.85 0 Comment
pennycruncher 49.54 10/19/2009 Outperform 5Y $19.49 -99.96% +81.89% -181.85 0 Comment
GIGManager < 20 10/8/2009 Outperform 3Y $19.24 -99.96% +85.81% -185.77 0 Comment
TotalStrange 97.52 8/12/2009 Outperform 1Y $14.58 -99.95% +97.86% -197.80 0 Comment
jddubya 36.74 6/5/2009 Outperform 5Y $14.81 -99.95% +111.46% -211.41 0 Comment
TXmaverick < 20 6/2/2009 Underperform 3W $14.00 -99.95% +111.10% +211.04 1 Comment
marcet 71.87 5/28/2009 Outperform 5Y $13.26 -99.94% +120.51% -220.45 0 Comment
cwimbish 21.95 5/28/2009 Outperform 5Y $11.46 -99.93% +121.60% -221.54 1 Comment
theMovement 86.10 5/21/2009 Outperform 1Y $9.86 -99.92% +124.07% -224.00 0 Comment
unstoppablepeon < 20 10/27/2008 Underperform NS $6.01 -99.88% +135.32% +235.20 1 Comment
moonleg 21.26 10/22/2008 Underperform 1Y $6.45 -99.88% +118.27% +218.15 0 Comment
Chiownknee 85.32 10/20/2008 Outperform 5Y $8.28 -99.91% +111.23% -211.14 0 Comment
IWalker182 38.06 10/17/2008 Outperform NS $8.44 -99.91% +113.94% -213.85 0 Comment
wakoma < 20 10/8/2008 Outperform NS $12.80 -99.94% +108.70% -208.64 1 Comment
istilldontcare 97.76 9/18/2008 Outperform 5Y $17.34 -99.96% +75.03% -174.99 0 Comment
unotsomuch < 20 8/20/2008 Outperform 3Y $19.10 -99.96% +60.71% -160.67 0 Comment
ejtrains 36.82 8/11/2008 Outperform NS $20.00 -99.96% +58.10% -158.06 0 Comment
joetheboss 59.04 6/11/2008 Outperform 3Y $19.57 -99.96% +52.32% -152.28 1 Comment
Sqwii < 20 6/10/2008 Outperform 1Y $20.32 -99.96% +50.91% -150.87 1 Comment
floridabull33 59.42 5/22/2008 Outperform 3M $20.64 -99.96% +47.64% -147.60 0 Comment
GDragonsDad 55.65 5/7/2008 Outperform NS $19.04 -99.96% +45.83% -145.79 0 Comment
TexasGeoTech < 20 4/30/2008 Outperform 3M $19.04 -99.96% +47.08% -147.04 0 Comment
JCASS714 67.37 4/29/2008 Outperform 5Y $18.82 -99.96% +47.67% -147.63 0 Comment
tuckerjack 28.52 4/17/2008 Outperform 5Y $19.60 -99.96% +51.07% -151.03 0 Comment
greengal1 < 20 4/17/2008 Outperform 3Y $19.60 -99.96% +51.07% -151.03 1 Comment
ctnotebo 54.29 4/11/2008 Outperform 3Y $17.56 -99.96% +52.56% -152.52 0 Comment
louisianacoonie 24.98 3/31/2008 Outperform NS $17.95 -99.96% +55.80% -155.76 0 Comment
bengalmomof4 82.31 3/28/2008 Underperform 3M $17.78 -99.96% +54.71% +154.66 0 Comment
chad07gt 23.62 3/27/2008 Outperform NS $17.78 -99.96% +54.50% -154.46 0 Comment
MoltenTofu < 20 3/14/2008 Outperform NS $17.34 -99.96% +55.72% -155.68 0 Comment
AgendaPacific 40.71 3/14/2008 Outperform 3Y $17.34 -99.96% +55.72% -155.68 0 Comment
ToeInsider 45.07 3/10/2008 Outperform NS $16.26 -99.95% +59.28% -159.23 0 Comment
altitudeaddict 32.13 2/28/2008 Outperform 5Y $17.94 -99.96% +50.65% -150.61 0 Comment
tritterup 47.82 2/26/2008 Outperform NS $18.36 -99.96% +49.73% -149.69 0 Comment
arindamd < 20 2/26/2008 Outperform 1Y $17.79 -99.96% +50.68% -150.63 1 Comment
dmgchess 84.68 2/20/2008 Outperform 1Y $17.66 -99.96% +54.31% -154.26 0 Comment
aalvarma < 20 2/20/2008 Outperform 1Y $17.66 -99.96% +54.31% -154.26 0 Comment
thetoxman 83.34 2/14/2008 Outperform 1Y $17.31 -99.96% +50.97% -150.93 0 Comment
thatguy99 27.52 2/5/2008 Outperform 5Y $17.79 -99.96% +52.10% -152.05 0 Comment
mopomi 67.05 1/24/2008 Outperform 5Y $18.76 -99.96% +54.09% -154.05 0 Comment
ATWDLimited < 20 1/23/2008 Outperform NS $18.34 -99.96% +59.26% -159.21 0 Comment
financeman101 94.00 1/17/2008 Outperform NS $16.85 -99.96% +55.24% -155.19 0 Comment
evreeland 76.70 1/16/2008 Outperform 1Y $16.25 -99.95% +50.96% -150.91 0 Comment
Obyss 56.47 12/31/2007 Outperform 3W $19.14 -99.96% +40.56% -140.52 0 Comment
Kenster35OR 73.65 12/24/2007 Outperform 1Y $20.20 -99.96% +38.93% -138.89 0 Comment
StockRakedotcom < 20 12/13/2007 Outperform NS $22.40 -99.97% +40.14% -140.11 0 Comment
everything4less 59.09 12/13/2007 Outperform 1Y $22.40 -99.97% +40.14% -140.11 0 Comment
beachlokal < 20 12/12/2007 Outperform 5Y $23.10 -99.97% +39.03% -139.00 0 Comment
WavingSpices < 20 12/5/2007 Outperform NS $22.10 -99.97% +40.20% -140.17 0 Comment
SaltyGenes 64.81 11/27/2007 Outperform 5Y $22.14 -99.97% +46.64% -146.61 0 Comment
apper < 20 11/21/2007 Outperform 5Y $22.58 -99.97% +46.25% -146.22 0 Comment
ProjectJack < 20 11/5/2007 Outperform 1Y $19.90 -99.96% +38.28% -138.24 0 Comment
IntenseSpider 89.03 10/25/2007 Outperform NS $22.86 -99.97% +38.34% -138.31 0 Comment
tv5cents 97.10 10/23/2007 Outperform 5Y $22.00 -99.97% +37.23% -137.20 0 Comment
Results 1 - 99 of 123 : 1 2 Next »

Featured Broker Partners


Advertisement